createdAt,value
2023-04-11T00:00:30.592Z,100.00
2023-04-11T00:03:00.316Z,100.00
2023-04-11T00:05:33.242Z,100.00
2023-04-11T00:07:59.762Z,100.00
2023-04-11T00:10:26.223Z,100.00
2023-04-11T00:12:56.740Z,100.00
2023-04-11T00:15:29.527Z,100.00
2023-04-11T00:17:58.436Z,100.00
2023-04-11T00:20:24.927Z,100.00
2023-04-11T00:22:54.012Z,100.00
2023-04-11T00:25:23.508Z,100.00
2023-04-11T00:27:50.096Z,100.00
2023-04-11T00:30:16.807Z,100.00
2023-04-11T00:32:45.987Z,100.00
2023-04-11T00:35:12.567Z,100.00
2023-04-11T00:37:39.369Z,100.00
2023-04-11T00:40:06.609Z,100.00
2023-04-11T00:42:33.673Z,100.00
2023-04-11T00:45:00.258Z,100.00
2023-04-11T00:47:26.945Z,100.00
2023-04-11T00:49:53.496Z,100.00
2023-04-11T00:52:20.056Z,100.00
2023-04-11T00:54:46.756Z,100.00
2023-04-11T00:57:13.316Z,100.00
2023-04-11T00:59:40.741Z,100.00
2023-04-11T01:02:08.177Z,100.00
2023-04-11T01:04:34.991Z,100.00
2023-04-11T01:07:06.184Z,100.00
2023-04-11T01:09:34.591Z,100.00
2023-04-11T01:12:03.014Z,100.00
2023-04-11T01:14:30.028Z,100.00
2023-04-11T01:16:57.268Z,100.00
2023-04-11T01:19:26.300Z,100.00
2023-04-11T01:21:54.019Z,100.00
2023-04-11T01:24:20.964Z,100.00
2023-04-11T01:26:47.577Z,100.00
2023-04-11T01:29:14.201Z,100.00
2023-04-11T01:31:40.862Z,100.00
2023-04-11T01:34:07.882Z,100.00
2023-04-11T01:36:34.668Z,100.00
2023-04-11T01:39:01.414Z,100.00
2023-04-11T01:41:31.310Z,100.00
2023-04-11T01:43:57.896Z,100.00
2023-04-11T01:46:25.179Z,100.00
2023-04-11T01:48:55.044Z,100.00
2023-04-11T01:51:21.750Z,100.00
2023-04-11T01:53:48.388Z,100.00
2023-04-11T01:56:15.236Z,100.00
2023-04-11T01:58:42.196Z,100.00
2023-04-11T02:01:09.040Z,100.00
2023-04-11T02:03:37.056Z,100.00
2023-04-11T02:06:03.990Z,100.00
2023-04-11T02:08:30.968Z,100.00
2023-04-11T02:10:57.613Z,100.00
2023-04-11T02:13:24.115Z,100.00
2023-04-11T02:15:50.622Z,100.00
2023-04-11T02:18:17.108Z,100.00
2023-04-11T02:20:43.616Z,100.00
2023-04-11T02:23:11.037Z,100.00
2023-04-11T02:25:38.996Z,100.00
2023-04-11T02:28:08.001Z,100.00
2023-04-11T02:30:34.757Z,100.00
2023-04-11T02:33:01.712Z,100.00
2023-04-11T02:35:28.395Z,100.00
2023-04-11T02:37:54.945Z,100.00
2023-04-11T02:40:21.434Z,100.00
2023-04-11T02:42:47.957Z,100.00
2023-04-11T02:45:14.476Z,100.00
2023-04-11T02:47:41.256Z,100.00
2023-04-11T02:50:08.659Z,100.00
2023-04-11T02:52:35.169Z,100.00
2023-04-11T02:55:01.744Z,100.00
2023-04-11T02:57:28.244Z,100.00
2023-04-11T02:59:54.759Z,100.00
2023-04-11T03:02:25.469Z,100.00
2023-04-11T03:04:52.087Z,100.00
2023-04-11T03:07:18.554Z,100.00
2023-04-11T03:09:45.138Z,100.00
2023-04-11T03:12:11.849Z,100.00
2023-04-11T03:14:38.347Z,100.00
2023-04-11T03:17:04.829Z,100.00
2023-04-11T03:19:31.365Z,100.00
2023-04-11T03:21:57.916Z,100.00
2023-04-11T03:24:24.410Z,100.00
2023-04-11T03:26:51.206Z,100.00
2023-04-11T03:29:17.729Z,100.00
2023-04-11T03:31:44.403Z,100.00
2023-04-11T03:34:10.962Z,100.00
2023-04-11T03:36:37.510Z,100.00
2023-04-11T03:39:04.156Z,100.00
2023-04-11T03:41:30.808Z,100.00
2023-04-11T03:43:57.373Z,100.00
2023-04-11T03:46:23.969Z,100.00
2023-04-11T03:48:50.589Z,100.00
2023-04-11T03:51:17.078Z,100.00
2023-04-11T03:53:43.593Z,100.00
2023-04-11T03:56:10.401Z,100.00
2023-04-11T03:58:37.104Z,100.00
2023-04-11T04:01:03.799Z,100.00
2023-04-11T04:03:30.620Z,100.00
2023-04-11T04:05:57.267Z,100.00
2023-04-11T04:08:23.770Z,100.00
2023-04-11T04:10:50.334Z,100.00
2023-04-11T04:13:16.863Z,100.00
2023-04-11T04:15:43.563Z,100.00
2023-04-11T04:18:10.381Z,100.00
2023-04-11T04:20:36.922Z,100.00
2023-04-11T04:23:06.018Z,100.00
2023-04-11T04:25:32.554Z,100.00
2023-04-11T04:28:00.949Z,100.00
2023-04-11T04:30:28.958Z,100.00
2023-04-11T04:32:58.876Z,100.00
2023-04-11T04:35:26.532Z,100.00
2023-04-11T04:37:54.087Z,100.00
2023-04-11T04:40:21.384Z,100.00
2023-04-11T04:42:58.161Z,100.00
2023-04-11T04:45:25.834Z,100.00
2023-04-11T04:47:52.378Z,100.00
2023-04-11T04:50:19.711Z,100.00
2023-04-11T04:52:46.597Z,100.00
2023-04-11T04:55:14.384Z,100.00
2023-04-11T04:57:40.914Z,100.00
2023-04-11T05:00:09.691Z,100.00
2023-04-11T05:02:37.840Z,100.00
2023-04-11T05:05:04.947Z,100.00
2023-04-11T05:07:31.555Z,100.00
2023-04-11T05:09:58.041Z,100.00
2023-04-11T05:12:27.169Z,100.00
2023-04-11T05:14:55.428Z,100.00
2023-04-11T05:17:24.710Z,100.00
2023-04-11T05:19:52.242Z,100.00
2023-04-11T05:22:18.744Z,100.00
2023-04-11T05:24:45.295Z,100.00
2023-04-11T05:27:13.338Z,100.00
2023-04-11T05:29:40.427Z,100.00
2023-04-11T05:32:07.037Z,100.00
2023-04-11T05:34:34.435Z,100.00
2023-04-11T05:37:01.434Z,100.00
2023-04-11T05:39:27.988Z,100.00
2023-04-11T05:41:54.485Z,100.00
2023-04-11T05:44:21.251Z,100.00
2023-04-11T05:46:47.784Z,100.00
2023-04-11T05:49:14.317Z,100.00
2023-04-11T05:51:40.994Z,100.00
2023-04-11T05:54:07.619Z,100.00
2023-04-11T05:56:35.265Z,100.00
2023-04-11T05:59:01.760Z,100.00
2023-04-11T06:01:28.226Z,100.00
2023-04-11T06:03:55.027Z,100.00
2023-04-11T06:06:21.824Z,100.00
2023-04-11T06:08:49.370Z,100.00
2023-04-11T06:11:16.012Z,100.00
2023-04-11T06:13:42.520Z,100.00
2023-04-11T06:16:09.374Z,100.00
2023-04-11T06:18:35.972Z,100.00
2023-04-11T06:21:02.475Z,100.00
2023-04-11T06:23:28.942Z,100.00
2023-04-11T06:25:55.575Z,100.00
2023-04-11T06:28:22.099Z,100.00
2023-04-11T06:30:48.631Z,100.00
2023-04-11T06:33:15.363Z,100.00
2023-04-11T06:35:41.885Z,100.00
2023-04-11T06:38:08.444Z,100.00
2023-04-11T06:40:35.315Z,100.00
2023-04-11T06:43:01.977Z,100.00
2023-04-11T06:45:28.746Z,100.00
2023-04-11T06:47:55.298Z,100.00
2023-04-11T06:50:21.918Z,100.00
2023-04-11T06:52:49.734Z,100.00
2023-04-11T06:55:16.777Z,100.00
2023-04-11T06:57:44.004Z,100.00
2023-04-11T07:00:12.794Z,100.00
2023-04-11T07:02:39.473Z,100.00
2023-04-11T07:05:06.717Z,100.00
2023-04-11T07:07:33.356Z,100.00
2023-04-11T07:09:59.839Z,100.00
2023-04-11T07:12:26.392Z,100.00
2023-04-11T07:14:53.113Z,100.00
2023-04-11T07:17:19.628Z,100.00
2023-04-11T07:19:46.644Z,100.00
2023-04-11T07:22:13.208Z,100.00
2023-04-11T07:24:39.678Z,100.00
2023-04-11T07:27:06.800Z,100.00
2023-04-11T07:29:33.299Z,100.00
2023-04-11T07:31:59.857Z,100.00
2023-04-11T07:34:26.624Z,100.00
2023-04-11T07:36:53.152Z,100.00
2023-04-11T07:39:19.707Z,100.00
2023-04-11T07:41:46.221Z,100.00
2023-04-11T07:44:12.778Z,100.00
2023-04-11T07:46:39.307Z,100.00
2023-04-11T07:49:06.112Z,100.00
2023-04-11T07:51:33.076Z,100.00
2023-04-11T07:53:59.751Z,100.00
2023-04-11T07:56:26.682Z,100.00
2023-04-11T07:58:53.263Z,100.00
2023-04-11T08:01:27.040Z,100.00
2023-04-11T08:03:54.795Z,100.00
2023-04-11T08:06:21.946Z,100.00
2023-04-11T08:08:49.229Z,100.00
2023-04-11T08:11:16.401Z,100.00
2023-04-11T08:13:43.899Z,100.00
2023-04-11T08:16:11.784Z,100.00
2023-04-11T08:18:42.015Z,100.00
2023-04-11T08:21:10.921Z,100.00
2023-04-11T08:23:37.765Z,100.00
2023-04-11T08:26:04.307Z,100.00
2023-04-11T08:28:30.805Z,100.00
2023-04-11T08:30:58.459Z,100.00
2023-04-11T08:33:28.077Z,100.00
2023-04-11T08:35:54.644Z,100.00
2023-04-11T08:38:21.178Z,100.00
2023-04-11T08:40:47.727Z,100.00
2023-04-11T08:43:14.420Z,100.00
2023-04-11T08:45:42.051Z,100.00
2023-04-11T08:48:10.861Z,100.00
2023-04-11T08:50:40.391Z,100.00
2023-04-11T08:53:08.401Z,100.00
2023-04-11T08:55:34.978Z,100.00
2023-04-11T08:58:02.911Z,100.00
2023-04-11T09:00:32.375Z,100.00
2023-04-11T09:03:01.385Z,100.00
2023-04-11T09:05:39.391Z,100.00
2023-04-11T09:08:08.448Z,100.00
2023-04-11T09:10:36.291Z,100.00
2023-04-11T09:13:18.310Z,100.00
2023-04-11T09:15:45.108Z,100.00
2023-04-11T09:18:31.028Z,100.00
2023-04-11T09:21:03.731Z,100.00
2023-04-11T09:23:30.375Z,100.00
2023-04-11T09:25:57.819Z,100.00
2023-04-11T09:28:24.733Z,100.00
2023-04-11T09:30:56.049Z,100.00
2023-04-11T09:33:24.527Z,100.00
2023-04-11T09:35:53.519Z,100.00
2023-04-11T09:38:31.192Z,100.00
2023-04-11T09:40:59.010Z,100.00
2023-04-11T09:43:26.647Z,100.00
2023-04-11T09:46:09.416Z,100.00
2023-04-11T09:48:46.389Z,100.00
2023-04-11T09:51:21.021Z,100.00
2023-04-11T09:53:59.013Z,100.00
2023-04-11T09:56:26.737Z,100.00
2023-04-11T09:58:55.117Z,100.00
2023-04-11T10:01:24.139Z,100.00
2023-04-11T10:03:51.410Z,100.00
2023-04-11T10:06:48.910Z,100.00
2023-04-11T10:09:16.743Z,100.00
2023-04-11T10:11:44.561Z,100.00
2023-04-11T10:14:36.823Z,100.00
2023-04-11T10:17:21.323Z,100.00
2023-04-11T10:19:54.077Z,100.00
2023-04-11T10:22:43.139Z,100.00
2023-04-11T10:25:16.882Z,100.00
2023-04-11T10:27:50.298Z,100.00
2023-04-11T10:30:17.039Z,100.00
2023-04-11T10:33:10.177Z,100.00
2023-04-11T10:35:59.992Z,100.00
2023-04-11T10:38:41.951Z,100.00
2023-04-11T10:41:31.572Z,100.00
2023-04-11T10:44:18.356Z,100.00
2023-04-11T10:46:50.568Z,100.00
2023-04-11T10:49:33.094Z,100.00
2023-04-11T10:52:18.332Z,100.00
2023-04-11T10:54:46.778Z,100.00
2023-04-11T10:57:13.896Z,100.00
2023-04-11T10:59:40.426Z,100.00
2023-04-11T11:02:07.284Z,100.00
2023-04-11T11:04:38.708Z,100.00
2023-04-11T11:07:07.544Z,100.00
2023-04-11T11:09:34.965Z,100.00
2023-04-11T11:12:08.274Z,100.00
2023-04-11T11:14:35.539Z,100.00
2023-04-11T11:17:03.186Z,100.00
2023-04-11T11:19:31.418Z,100.00
2023-04-11T11:22:04.799Z,100.00
2023-04-11T11:24:31.456Z,100.00
2023-04-11T11:26:58.997Z,100.00
2023-04-11T11:29:33.806Z,100.00
2023-04-11T11:32:03.519Z,100.00
2023-04-11T11:34:34.906Z,100.00
2023-04-11T11:37:06.537Z,100.00
2023-04-11T11:39:34.776Z,100.00
2023-04-11T11:42:01.803Z,99.23
2023-04-11T11:44:30.099Z,93.62
2023-04-11T11:47:12.512Z,72.91
2023-04-11T11:49:54.378Z,63.15
2023-04-11T11:52:39.748Z,57.53
2023-04-11T11:55:27.990Z,54.77
2023-04-11T11:57:54.667Z,52.48
2023-04-11T12:00:26.150Z,49.80
2023-04-11T12:02:54.057Z,48.70
2023-04-11T12:05:23.666Z,49.31
2023-04-11T12:07:54.697Z,51.44
2023-04-11T12:10:21.306Z,53.41
2023-04-11T12:12:53.982Z,47.90
2023-04-11T12:15:26.568Z,48.24
2023-04-11T12:17:54.855Z,53.80
2023-04-11T12:20:26.373Z,59.42
2023-04-11T12:22:54.668Z,63.17
2023-04-11T12:25:22.023Z,68.45
2023-04-11T12:27:48.633Z,71.91
2023-04-11T12:30:15.352Z,71.11
2023-04-11T12:32:42.482Z,73.90
2023-04-11T12:35:10.636Z,73.98
2023-04-11T12:37:37.975Z,77.75
2023-04-11T12:40:12.595Z,78.76
2023-04-11T12:42:53.150Z,75.32
2023-04-11T12:45:23.090Z,76.12
2023-04-11T12:47:49.654Z,80.14
2023-04-11T12:50:16.237Z,85.33
2023-04-11T12:52:42.994Z,89.85
2023-04-11T12:55:09.999Z,97.46
2023-04-11T12:57:36.814Z,100.00
2023-04-11T13:00:07.158Z,91.25
2023-04-11T13:02:42.075Z,68.97
2023-04-11T13:05:11.130Z,66.74
2023-04-11T13:07:37.971Z,63.79
2023-04-11T13:10:07.834Z,61.43
2023-04-11T13:12:39.676Z,59.28
2023-04-11T13:15:07.978Z,56.77
2023-04-11T13:17:34.651Z,52.72
2023-04-11T13:20:01.388Z,46.44
2023-04-11T13:22:27.947Z,44.07
2023-04-11T13:24:54.461Z,41.66
2023-04-11T13:27:22.161Z,46.44
2023-04-11T13:29:48.798Z,46.55
2023-04-11T13:32:15.591Z,49.20
2023-04-11T13:34:42.516Z,59.27
2023-04-11T13:37:09.219Z,61.35
2023-04-11T13:39:35.860Z,63.54
2023-04-11T13:42:02.558Z,64.68
2023-04-11T13:44:29.113Z,68.36
2023-04-11T13:46:55.922Z,69.94
2023-04-11T13:49:22.424Z,72.12
2023-04-11T13:51:48.978Z,74.15
2023-04-11T13:54:15.621Z,75.68
2023-04-11T13:56:42.247Z,76.78
2023-04-11T13:59:08.804Z,75.16
2023-04-11T14:01:35.364Z,72.93
2023-04-11T14:04:02.269Z,70.02
2023-04-11T14:06:28.956Z,67.79
2023-04-11T14:08:55.551Z,70.21
2023-04-11T14:11:22.132Z,70.28
2023-04-11T14:13:48.873Z,71.96
2023-04-11T14:16:15.584Z,72.79
2023-04-11T14:18:42.235Z,73.72
2023-04-11T14:21:08.874Z,70.30
2023-04-11T14:23:35.879Z,73.14
2023-04-11T14:26:02.489Z,74.57
2023-04-11T14:28:28.981Z,72.99
2023-04-11T14:30:56.954Z,75.71
2023-04-11T14:33:23.615Z,75.72
2023-04-11T14:35:50.975Z,74.84
2023-04-11T14:38:17.525Z,75.18
2023-04-11T14:40:44.593Z,74.56
2023-04-11T14:43:11.322Z,77.24
2023-04-11T14:45:38.168Z,78.20
2023-04-11T14:48:05.110Z,76.50
2023-04-11T14:50:32.455Z,77.84
2023-04-11T14:52:59.071Z,76.98
2023-04-11T14:55:25.747Z,78.09
2023-04-11T14:57:54.681Z,77.67
2023-04-11T15:00:22.601Z,77.96
2023-04-11T15:02:52.434Z,79.46
2023-04-11T15:05:20.024Z,76.50
2023-04-11T15:07:48.894Z,79.14
2023-04-11T15:10:18.046Z,79.61
2023-04-11T15:12:44.755Z,81.17
2023-04-11T15:15:12.073Z,80.46
2023-04-11T15:17:41.261Z,81.44
2023-04-11T15:20:09.667Z,80.67
2023-04-11T15:22:41.268Z,80.25
2023-04-11T15:25:10.418Z,80.69
2023-04-11T15:27:37.092Z,76.59
2023-04-11T15:30:04.877Z,79.51
2023-04-11T15:32:31.815Z,76.20
2023-04-11T15:34:59.250Z,78.47
2023-04-11T15:37:26.439Z,79.63
2023-04-11T15:39:53.068Z,79.51
2023-04-11T15:42:19.633Z,78.84
2023-04-11T15:44:46.165Z,79.45
2023-04-11T15:47:12.858Z,79.85
2023-04-11T15:49:39.818Z,78.58
2023-04-11T15:52:07.079Z,79.95
2023-04-11T15:54:33.891Z,81.95
2023-04-11T15:57:01.764Z,81.06
2023-04-11T15:59:28.526Z,81.36
2023-04-11T16:01:55.150Z,80.56
2023-04-11T16:04:21.870Z,77.72
2023-04-11T16:06:48.510Z,80.11
2023-04-11T16:09:15.633Z,77.90
2023-04-11T16:11:42.127Z,78.26
2023-04-11T16:14:08.608Z,77.52
2023-04-11T16:16:35.381Z,76.60
2023-04-11T16:19:02.009Z,78.92
2023-04-11T16:21:28.520Z,79.35
2023-04-11T16:23:55.402Z,80.65
2023-04-11T16:26:22.670Z,80.23
2023-04-11T16:28:49.533Z,83.32
2023-04-11T16:31:21.912Z,82.46
2023-04-11T16:33:48.465Z,83.93
2023-04-11T16:36:15.556Z,84.81
2023-04-11T16:38:42.161Z,85.39
2023-04-11T16:41:08.641Z,86.35
2023-04-11T16:43:35.197Z,87.25
2023-04-11T16:46:01.971Z,86.86
2023-04-11T16:48:30.315Z,87.19
2023-04-11T16:50:56.877Z,87.78
2023-04-11T16:53:23.349Z,86.49
2023-04-11T16:55:50.451Z,87.94
2023-04-11T16:58:17.029Z,87.79
2023-04-11T17:00:43.994Z,87.23
2023-04-11T17:03:10.804Z,86.93
2023-04-11T17:05:38.081Z,87.66
2023-04-11T17:08:04.623Z,86.79
2023-04-11T17:10:31.104Z,88.47
2023-04-11T17:12:58.563Z,88.07
2023-04-11T17:15:25.112Z,89.32
2023-04-11T17:17:51.636Z,86.40
2023-04-11T17:20:18.181Z,88.39
2023-04-11T17:22:45.006Z,90.48
2023-04-11T17:25:11.734Z,90.90
2023-04-11T17:27:38.891Z,90.85
2023-04-11T17:30:06.883Z,92.67
2023-04-11T17:32:35.277Z,90.74
2023-04-11T17:35:04.458Z,92.01
2023-04-11T17:37:30.989Z,91.17
2023-04-11T17:39:57.799Z,91.57
2023-04-11T17:42:24.299Z,91.84
2023-04-11T17:44:50.783Z,91.53
2023-04-11T17:47:17.622Z,90.25
2023-04-11T17:49:45.992Z,91.11
2023-04-11T17:52:12.493Z,91.57
2023-04-11T17:54:39.897Z,92.26
2023-04-11T17:57:06.918Z,91.42
2023-04-11T17:59:34.330Z,91.55
2023-04-11T18:02:01.024Z,92.11
2023-04-11T18:04:27.820Z,92.09
2023-04-11T18:06:55.025Z,91.48
2023-04-11T18:09:23.966Z,92.18
2023-04-11T18:11:50.516Z,94.42
2023-04-11T18:14:17.737Z,95.84
2023-04-11T18:16:46.551Z,96.35
2023-04-11T18:19:13.832Z,97.69
2023-04-11T18:21:41.001Z,98.50
2023-04-11T18:24:07.677Z,100.00
2023-04-11T18:26:35.402Z,100.00
2023-04-11T18:29:02.018Z,100.00
2023-04-11T18:31:28.726Z,100.00
2023-04-11T18:33:55.490Z,100.00
2023-04-11T18:36:22.582Z,100.00
2023-04-11T18:38:49.473Z,100.00
2023-04-11T18:41:17.390Z,100.00
2023-04-11T18:43:44.916Z,100.00
2023-04-11T18:46:11.480Z,100.00
2023-04-11T18:48:38.165Z,100.00
2023-04-11T18:51:05.185Z,100.00
2023-04-11T18:53:32.414Z,100.00
2023-04-11T18:56:02.888Z,100.00
2023-04-11T18:58:31.948Z,100.00
2023-04-11T19:01:06.609Z,100.00
2023-04-11T19:03:41.354Z,100.00
2023-04-11T19:06:08.531Z,100.00
2023-04-11T19:08:36.030Z,100.00
2023-04-11T19:11:02.838Z,100.00
2023-04-11T19:13:29.396Z,100.00
2023-04-11T19:15:56.545Z,100.00
2023-04-11T19:18:23.129Z,100.00
2023-04-11T19:20:49.669Z,100.00
2023-04-11T19:23:16.190Z,100.00
2023-04-11T19:25:42.908Z,100.00
2023-04-11T19:28:09.617Z,100.00
2023-04-11T19:30:36.236Z,100.00
2023-04-11T19:33:03.588Z,100.00
2023-04-11T19:35:30.678Z,100.00
2023-04-11T19:37:58.727Z,100.00
2023-04-11T19:40:27.017Z,100.00
2023-04-11T19:42:53.629Z,100.00
2023-04-11T19:45:20.395Z,100.00
2023-04-11T19:47:46.992Z,100.00
2023-04-11T19:50:13.789Z,100.00
2023-04-11T19:52:42.138Z,100.00
2023-04-11T19:55:12.268Z,100.00
2023-04-11T19:57:39.027Z,100.00
2023-04-11T20:00:13.681Z,100.00
2023-04-11T20:02:44.673Z,100.00
2023-04-11T20:05:16.453Z,100.00
2023-04-11T20:07:44.386Z,100.00
2023-04-11T20:10:12.216Z,100.00
2023-04-11T20:12:38.778Z,100.00
2023-04-11T20:15:05.756Z,100.00
2023-04-11T20:17:32.767Z,100.00
2023-04-11T20:19:59.375Z,100.00
2023-04-11T20:22:25.858Z,100.00
2023-04-11T20:24:52.515Z,100.00
2023-04-11T20:27:19.045Z,100.00
2023-04-11T20:29:45.911Z,100.00
2023-04-11T20:32:12.583Z,100.00
2023-04-11T20:34:39.122Z,100.00
2023-04-11T20:37:07.707Z,100.00
2023-04-11T20:39:34.435Z,100.00
2023-04-11T20:42:01.187Z,100.00
2023-04-11T20:44:28.733Z,100.00
2023-04-11T20:46:57.034Z,100.00
2023-04-11T20:49:28.179Z,100.00
2023-04-11T20:51:54.971Z,100.00
2023-04-11T20:54:21.896Z,100.00
2023-04-11T20:56:48.415Z,100.00
2023-04-11T20:59:14.893Z,100.00
2023-04-11T21:01:41.726Z,100.00
2023-04-11T21:04:09.662Z,100.00
2023-04-11T21:06:36.516Z,100.00
2023-04-11T21:09:04.204Z,100.00
2023-04-11T21:11:30.916Z,100.00
2023-04-11T21:13:57.575Z,100.00
2023-04-11T21:16:24.483Z,100.00
2023-04-11T21:18:51.080Z,100.00
2023-04-11T21:21:17.575Z,100.00
2023-04-11T21:23:44.042Z,100.00
2023-04-11T21:26:11.628Z,100.00
2023-04-11T21:28:38.350Z,100.00
2023-04-11T21:31:05.212Z,100.00
2023-04-11T21:33:31.754Z,100.00
2023-04-11T21:35:58.436Z,100.00
2023-04-11T21:38:25.066Z,100.00
2023-04-11T21:40:52.452Z,100.00
2023-04-11T21:43:18.981Z,100.00
2023-04-11T21:45:45.630Z,100.00
2023-04-11T21:48:12.234Z,100.00
2023-04-11T21:50:38.741Z,100.00
2023-04-11T21:53:05.300Z,100.00
2023-04-11T21:55:31.838Z,100.00
2023-04-11T21:57:58.528Z,100.00
2023-04-11T22:00:25.263Z,100.00
2023-04-11T22:02:51.895Z,100.00
2023-04-11T22:05:19.221Z,100.00
2023-04-11T22:07:48.439Z,100.00
2023-04-11T22:10:22.213Z,100.00
2023-04-11T22:12:49.140Z,100.00
2023-04-11T22:15:18.467Z,100.00
2023-04-11T22:17:46.217Z,100.00
2023-04-11T22:20:13.221Z,100.00
2023-04-11T22:22:39.725Z,100.00
2023-04-11T22:25:07.492Z,100.00
2023-04-11T22:27:34.612Z,100.00
2023-04-11T22:30:02.294Z,100.00
2023-04-11T22:32:30.083Z,100.00
2023-04-11T22:34:56.720Z,100.00
2023-04-11T22:37:23.290Z,100.00
2023-04-11T22:39:50.000Z,100.00
2023-04-11T22:42:16.859Z,100.00
2023-04-11T22:44:43.450Z,100.00
2023-04-11T22:47:13.370Z,100.00
2023-04-11T22:49:42.802Z,100.00
2023-04-11T22:52:14.103Z,100.00
2023-04-11T22:54:42.008Z,100.00
2023-04-11T22:57:08.519Z,100.00
2023-04-11T22:59:35.091Z,100.00
2023-04-11T23:02:01.719Z,100.00
2023-04-11T23:04:28.403Z,100.00
2023-04-11T23:06:54.981Z,100.00
2023-04-11T23:09:21.764Z,100.00
2023-04-11T23:11:48.864Z,100.00
2023-04-11T23:14:17.991Z,100.00
2023-04-11T23:16:45.081Z,100.00
2023-04-11T23:19:11.687Z,100.00
2023-04-11T23:21:38.234Z,100.00
2023-04-11T23:24:06.858Z,100.00
2023-04-11T23:26:33.767Z,100.00
2023-04-11T23:29:02.472Z,100.00
2023-04-11T23:31:30.330Z,100.00
2023-04-11T23:33:57.244Z,100.00
2023-04-11T23:36:24.058Z,100.00
2023-04-11T23:38:50.671Z,100.00
2023-04-11T23:41:17.264Z,100.00
2023-04-11T23:43:43.815Z,100.00
2023-04-11T23:46:10.965Z,100.00
2023-04-11T23:48:37.621Z,100.00
2023-04-11T23:51:04.365Z,100.00
2023-04-11T23:53:31.777Z,100.00
2023-04-11T23:55:58.381Z,100.00
2023-04-11T23:58:24.930Z,100.00
